createdAt,value
2022-11-02T00:01:54.553Z,990.3
2022-11-02T00:03:56.157Z,990.3
2022-11-02T00:05:57.674Z,990.3
2022-11-02T00:07:59.365Z,990.4
2022-11-02T00:12:02.369Z,990.3
2022-11-02T00:14:04.144Z,990.4
2022-11-02T00:16:06.172Z,990.4
2022-11-02T00:18:07.948Z,990.3
2022-11-02T00:20:09.088Z,990.3
2022-11-02T00:22:10.146Z,990.2
2022-11-02T00:24:12.068Z,990.3
2022-11-02T00:26:13.114Z,990.3
2022-11-02T00:28:14.512Z,990.3
2022-11-02T00:30:15.614Z,990.3
2022-11-02T00:32:17.395Z,990.3
2022-11-02T00:34:18.953Z,990.3
2022-11-02T00:36:20.349Z,990.3
2022-11-02T00:38:22.302Z,990.4
2022-11-02T00:40:24.212Z,990.3
2022-11-02T00:42:25.897Z,990.3
2022-11-02T00:44:27.423Z,990.2
2022-11-02T00:46:29.186Z,990.2
2022-11-02T00:48:30.400Z,990.3
2022-11-02T00:50:32.313Z,990.3
2022-11-02T00:52:33.761Z,990.3
2022-11-02T00:54:35.269Z,990.3
2022-11-02T00:56:36.510Z,990.2
2022-11-02T00:58:37.664Z,990.3
2022-11-02T01:00:39.038Z,990.3
2022-11-02T01:02:41.077Z,990.3
2022-11-02T01:04:42.165Z,990.3
2022-11-02T01:06:43.452Z,990.4
2022-11-02T01:10:47.368Z,990.4
2022-11-02T01:12:47.686Z,990.4
2022-11-02T01:14:49.656Z,990.3
2022-11-02T01:16:50.784Z,990.2
2022-11-02T01:20:52.983Z,990.3
2022-11-02T01:22:54.358Z,990.2
2022-11-02T01:24:55.596Z,990.3
2022-11-02T01:27:05.649Z,990.3
2022-11-02T01:28:58.428Z,990.3
2022-11-02T01:31:00.029Z,990.1
2022-11-02T01:33:01.802Z,990.3
2022-11-02T01:35:03.277Z,990.3
2022-11-02T01:37:04.652Z,990.3
2022-11-02T01:39:06.339Z,990.2
2022-11-02T01:41:07.765Z,990.2
2022-11-02T01:43:09.734Z,990.2
2022-11-02T01:45:10.787Z,990.1
2022-11-02T01:47:12.447Z,990.1
2022-11-02T01:49:13.616Z,990.2
2022-11-02T01:53:16.677Z,990
2022-11-02T01:55:18.415Z,990.1
2022-11-02T01:57:19.707Z,990.1
2022-11-02T01:59:20.943Z,990.1
2022-11-02T02:01:22.391Z,990
2022-11-02T02:03:24.214Z,990
2022-11-02T02:05:25.480Z,989.9
2022-11-02T02:07:27.360Z,989.9
2022-11-02T02:09:28.814Z,989.9
2022-11-02T02:11:30.486Z,989.8
2022-11-02T02:13:32.379Z,989.9
2022-11-02T02:15:33.601Z,990
2022-11-02T02:17:34.703Z,990
2022-11-02T02:19:36.172Z,989.9
2022-11-02T02:21:37.458Z,990
2022-11-02T02:23:39.071Z,989.9
2022-11-02T02:25:40.837Z,989.9
2022-11-02T02:27:42.122Z,989.9
2022-11-02T02:29:43.963Z,990
2022-11-02T02:31:45.625Z,990
2022-11-02T02:33:47.594Z,990
2022-11-02T02:35:48.731Z,989.9
2022-11-02T02:37:50.669Z,989.9
2022-11-02T02:39:52.486Z,989.9
2022-11-02T02:41:53.803Z,989.9
2022-11-02T02:43:55.476Z,989.9
2022-11-02T02:45:56.641Z,989.8
2022-11-02T02:47:58.438Z,989.9
2022-11-02T02:49:59.772Z,989.9
2022-11-02T02:52:00.794Z,989.9
2022-11-02T02:54:01.956Z,989.8
2022-11-02T02:56:03.646Z,989.8
2022-11-02T02:58:05.407Z,989.9
2022-11-02T03:00:06.625Z,989.9
2022-11-02T03:02:07.844Z,989.7
2022-11-02T03:04:09.258Z,989.8
2022-11-02T03:06:10.707Z,989.8
2022-11-02T03:08:11.886Z,989.8
2022-11-02T03:10:13.331Z,989.8
2022-11-02T03:12:14.678Z,989.8
2022-11-02T03:14:16.023Z,989.8
2022-11-02T03:16:17.762Z,989.8
2022-11-02T03:18:19.452Z,989.9
2022-11-02T03:20:20.971Z,989.8
2022-11-02T03:22:22.523Z,989.7
2022-11-02T03:24:23.593Z,989.7
2022-11-02T03:26:24.853Z,989.8
2022-11-02T03:28:26.469Z,989.7
2022-11-02T03:30:27.852Z,989.8
2022-11-02T03:32:28.857Z,989.8
2022-11-02T03:34:30.423Z,989.8
2022-11-02T03:36:31.527Z,989.8
2022-11-02T03:38:33.086Z,989.8
2022-11-02T03:40:34.439Z,989.8
2022-11-02T03:42:36.324Z,989.9
2022-11-02T03:44:37.539Z,989.8
2022-11-02T03:46:39.309Z,989.8
2022-11-02T03:48:41.080Z,989.9
2022-11-02T03:52:43.979Z,989.9
2022-11-02T03:54:45.417Z,990
2022-11-02T03:56:46.419Z,990
2022-11-02T03:58:47.878Z,989.8
2022-11-02T04:00:49.187Z,989.8
2022-11-02T04:02:50.749Z,989.8
2022-11-02T04:04:52.469Z,989.7
2022-11-02T04:06:53.828Z,989.7
2022-11-02T04:08:55.285Z,989.8
2022-11-02T04:10:56.660Z,989.8
2022-11-02T04:12:58.293Z,989.8
2022-11-02T04:14:59.422Z,989.9
2022-11-02T04:17:00.473Z,989.8
2022-11-02T04:19:01.596Z,989.9
2022-11-02T04:21:02.685Z,989.9
2022-11-02T04:23:04.159Z,989.8
2022-11-02T04:25:05.630Z,989.9
2022-11-02T04:27:06.732Z,989.9
2022-11-02T04:29:08.605Z,989.9
2022-11-02T04:31:10.204Z,989.9
2022-11-02T04:33:11.778Z,989.9
2022-11-02T04:35:12.929Z,989.8
2022-11-02T04:37:14.765Z,989.8
2022-11-02T04:39:15.786Z,989.8
2022-11-02T04:41:18.041Z,989.8
2022-11-02T04:43:18.109Z,989.8
2022-11-02T04:45:19.963Z,989.8
2022-11-02T04:47:21.405Z,989.8
2022-11-02T04:49:22.627Z,989.8
2022-11-02T04:51:24.333Z,989.7
2022-11-02T04:53:25.833Z,989.8
2022-11-02T04:55:27.640Z,989.9
2022-11-02T04:59:30.785Z,989.9
2022-11-02T05:01:32.301Z,989.9
2022-11-02T05:03:33.440Z,989.9
2022-11-02T05:05:34.616Z,989.9
2022-11-02T05:07:35.650Z,989.9
2022-11-02T05:09:36.844Z,990
2022-11-02T05:11:38.713Z,990
2022-11-02T05:13:40.330Z,990
2022-11-02T05:15:41.350Z,990
2022-11-02T05:17:43.106Z,990
2022-11-02T05:19:44.575Z,990
2022-11-02T05:21:45.673Z,990.1
2022-11-02T05:23:47.058Z,990
2022-11-02T05:25:48.998Z,990
2022-11-02T05:27:50.853Z,990.1
2022-11-02T05:29:52.023Z,990.1
2022-11-02T05:31:53.616Z,990.1
2022-11-02T05:35:56.971Z,990
2022-11-02T05:37:58.695Z,990.2
2022-11-02T05:40:00.201Z,990.1
2022-11-02T05:42:01.652Z,990.1
2022-11-02T05:44:02.865Z,990.2
2022-11-02T05:46:04.396Z,990.2
2022-11-02T05:48:05.676Z,990.1
2022-11-02T05:50:07.595Z,990.2
2022-11-02T05:52:08.825Z,990.2
2022-11-02T05:54:10.370Z,990.3
2022-11-02T05:56:12.159Z,990.2
2022-11-02T05:58:13.740Z,990.3
2022-11-02T06:00:15.335Z,990.2
2022-11-02T06:02:16.749Z,990.3
2022-11-02T06:04:18.344Z,990.2
2022-11-02T06:06:19.524Z,990.3
2022-11-02T06:08:20.655Z,990.3
2022-11-02T06:10:22.100Z,990.3
2022-11-02T06:12:23.395Z,990.3
2022-11-02T06:14:24.894Z,990.3
2022-11-02T06:16:26.768Z,990.4
2022-11-02T06:20:29.140Z,990.4
2022-11-02T06:22:30.626Z,990.4
2022-11-02T06:25:16.407Z,990.5
2022-11-02T06:27:17.799Z,990.6
2022-11-02T06:29:19.382Z,990.6
2022-11-02T06:31:21.015Z,990.6
2022-11-02T06:33:22.615Z,990.6
2022-11-02T06:35:23.913Z,990.6
2022-11-02T06:37:25.414Z,990.7
2022-11-02T06:39:26.686Z,990.7
2022-11-02T06:41:28.542Z,990.7
2022-11-02T06:43:30.423Z,990.8
2022-11-02T06:45:31.534Z,990.8
2022-11-02T06:47:33.270Z,990.9
2022-11-02T06:49:34.630Z,991
2022-11-02T06:51:36.419Z,991
2022-11-02T06:53:37.727Z,991.1
2022-11-02T06:55:39.222Z,991.1
2022-11-02T06:57:40.945Z,991.2
2022-11-02T06:59:42.833Z,991.2
2022-11-02T07:01:44.876Z,991.3
2022-11-02T07:03:46.583Z,991.4
2022-11-02T07:05:47.655Z,991.4
2022-11-02T07:07:48.928Z,991.4
2022-11-02T07:09:50.342Z,991.5
2022-11-02T07:11:51.738Z,991.5
2022-11-02T07:13:52.756Z,991.5
2022-11-02T07:17:55.080Z,991.5
2022-11-02T07:19:56.745Z,991.5
2022-11-02T07:21:58.000Z,991.5
2022-11-02T07:23:59.454Z,991.6
2022-11-02T07:26:00.423Z,991.5
2022-11-02T07:28:01.956Z,991.6
2022-11-02T07:30:03.318Z,991.6
2022-11-02T07:32:04.888Z,991.6
2022-11-02T07:34:05.999Z,991.7
2022-11-02T07:36:07.300Z,991.7
2022-11-02T07:38:08.982Z,991.8
2022-11-02T07:40:10.855Z,991.7
2022-11-02T07:42:12.565Z,991.7
2022-11-02T07:44:13.679Z,991.7
2022-11-02T07:46:15.172Z,991.8
2022-11-02T07:48:16.707Z,991.8
2022-11-02T07:50:18.419Z,991.8
2022-11-02T07:52:20.202Z,991.9
2022-11-02T07:54:21.834Z,991.9
2022-11-02T07:56:23.280Z,991.9
2022-11-02T08:00:25.764Z,991.9
2022-11-02T08:02:27.040Z,991.9
2022-11-02T08:04:28.121Z,992
2022-11-02T08:06:29.860Z,992
2022-11-02T08:08:30.850Z,992.2
2022-11-02T08:10:33.974Z,992.1
2022-11-02T08:12:34.506Z,992.1
2022-11-02T08:14:35.548Z,992.1
2022-11-02T08:16:36.871Z,992
2022-11-02T08:18:38.142Z,992
2022-11-02T08:20:39.808Z,992
2022-11-02T08:22:41.075Z,992.1
2022-11-02T08:24:42.171Z,992.1
2022-11-02T08:26:44.924Z,992.1
2022-11-02T08:28:45.554Z,992
2022-11-02T08:30:46.434Z,992.1
2022-11-02T08:32:47.384Z,992.1
2022-11-02T08:34:49.131Z,992.1
2022-11-02T08:36:50.414Z,992.1
2022-11-02T08:38:52.109Z,992.1
2022-11-02T08:40:53.450Z,992
2022-11-02T08:42:54.739Z,992
2022-11-02T08:44:56.295Z,991.9
2022-11-02T08:46:57.254Z,992
2022-11-02T08:48:58.909Z,991.9
2022-11-02T08:51:00.372Z,992
2022-11-02T08:53:01.741Z,992
2022-11-02T08:55:02.801Z,992
2022-11-02T08:57:04.259Z,992
2022-11-02T08:59:05.602Z,992.1
2022-11-02T09:01:07.473Z,992.1
2022-11-02T09:03:08.674Z,992.1
2022-11-02T09:05:09.766Z,992.2
2022-11-02T09:07:10.863Z,992.2
2022-11-02T09:09:12.367Z,992.1
2022-11-02T09:11:14.085Z,992.1
2022-11-02T09:13:14.971Z,992.2
2022-11-02T09:15:16.081Z,992.1
2022-11-02T09:17:17.874Z,992.1
2022-11-02T09:19:19.229Z,992.2
2022-11-02T09:21:20.770Z,992
2022-11-02T09:23:21.865Z,992.1
2022-11-02T09:25:22.928Z,992.2
2022-11-02T09:27:24.319Z,992.1
2022-11-02T09:31:27.084Z,992.1
2022-11-02T09:33:28.947Z,992.2
2022-11-02T09:35:30.901Z,992.1
2022-11-02T09:37:30.760Z,992.2
2022-11-02T09:39:32.173Z,992.2
2022-11-02T09:41:33.342Z,992.2
2022-11-02T09:43:35.065Z,992.1
2022-11-02T09:45:36.548Z,992.2
2022-11-02T09:48:11.163Z,992.2
2022-11-02T09:49:39.156Z,992.3
2022-11-02T09:51:40.806Z,992.3
2022-11-02T09:53:41.810Z,992.3
2022-11-02T09:57:43.966Z,992.3
2022-11-02T09:59:45.622Z,992.2
2022-11-02T10:01:47.343Z,992.4
2022-11-02T10:03:48.949Z,992.5
2022-11-02T10:05:50.351Z,992.4
2022-11-02T10:07:51.924Z,992.3
2022-11-02T10:09:53.328Z,992.4
2022-11-02T10:11:54.776Z,992.3
2022-11-02T10:14:05.255Z,992.3
2022-11-02T10:15:57.503Z,992.3
2022-11-02T10:17:59.076Z,992.3
2022-11-02T10:20:00.039Z,992.3
2022-11-02T10:22:01.754Z,992.3
2022-11-02T10:24:02.761Z,992.3
2022-11-02T10:26:04.010Z,992.2
2022-11-02T10:28:05.459Z,992.3
2022-11-02T10:30:07.176Z,992.3
2022-11-02T10:32:08.385Z,992.3
2022-11-02T10:34:09.674Z,992.3
2022-11-02T10:36:17.793Z,992.3
2022-11-02T10:38:15.093Z,992.3
2022-11-02T10:40:13.542Z,992.3
2022-11-02T10:42:15.395Z,992.4
2022-11-02T10:44:16.669Z,992.3
2022-11-02T10:46:18.448Z,992.4
2022-11-02T10:48:19.406Z,992.4
2022-11-02T10:50:20.443Z,992.3
2022-11-02T10:52:21.308Z,992.4
2022-11-02T10:54:25.296Z,992.5
2022-11-02T10:56:23.197Z,992.4
2022-11-02T10:58:24.817Z,992.3
2022-11-02T11:00:26.671Z,992.2
2022-11-02T11:02:27.977Z,992.5
2022-11-02T11:04:29.437Z,992.3
2022-11-02T11:06:31.220Z,992.4
2022-11-02T11:08:32.968Z,992.4
2022-11-02T11:10:34.680Z,992.3
2022-11-02T11:12:35.910Z,992.3
2022-11-02T11:16:37.917Z,992.4
2022-11-02T11:20:40.535Z,992.3
2022-11-02T11:22:41.947Z,992.3
2022-11-02T11:24:43.842Z,992.4
2022-11-02T11:26:45.266Z,992.3
2022-11-02T11:28:47.011Z,992.2
2022-11-02T11:30:59.736Z,992.2
2022-11-02T11:32:49.938Z,992.2
2022-11-02T11:34:50.973Z,992.3
2022-11-02T11:36:52.391Z,992.2
2022-11-02T11:38:53.494Z,992.3
2022-11-02T11:40:54.821Z,992.4
2022-11-02T11:42:58.693Z,992.3
2022-11-02T11:44:58.180Z,992.3
2022-11-02T11:46:59.834Z,992.3
2022-11-02T11:49:01.357Z,992.3
2022-11-02T11:51:02.654Z,992.3
2022-11-02T11:55:05.625Z,992.3
2022-11-02T11:57:06.643Z,992.2
2022-11-02T11:59:07.667Z,992.3
2022-11-02T12:01:10.393Z,992.1
2022-11-02T12:03:10.623Z,992.2
2022-11-02T12:05:11.889Z,992.1
2022-11-02T12:07:13.688Z,992
2022-11-02T12:09:14.821Z,992.1
2022-11-02T12:11:18.857Z,992.2
2022-11-02T12:13:17.255Z,992.3
2022-11-02T12:15:18.174Z,992.1
2022-11-02T12:17:20.020Z,992.1
2022-11-02T12:21:22.982Z,992.1
2022-11-02T12:23:24.267Z,992.1
2022-11-02T12:25:25.677Z,992
2022-11-02T12:27:27.305Z,992.1
2022-11-02T12:29:28.993Z,991.9
2022-11-02T12:31:30.120Z,992
2022-11-02T12:33:31.880Z,992.1
2022-11-02T12:37:40.726Z,992
2022-11-02T12:39:35.343Z,992
2022-11-02T12:41:36.265Z,992
2022-11-02T12:43:37.626Z,991.9
2022-11-02T12:45:38.639Z,991.8
2022-11-02T12:47:40.276Z,991.7
2022-11-02T12:49:41.234Z,991.7
2022-11-02T12:51:42.806Z,991.8
2022-11-02T12:53:43.775Z,991.7
2022-11-02T12:55:44.768Z,991.6
2022-11-02T12:57:46.061Z,991.8
2022-11-02T12:59:47.733Z,991.7
2022-11-02T13:01:48.769Z,991.9
2022-11-02T13:03:50.025Z,991.8
2022-11-02T13:05:51.589Z,991.8
2022-11-02T13:07:53.202Z,991.9
2022-11-02T13:08:36.971Z,991.9
2022-11-02T13:10:38.708Z,991.7
2022-11-02T13:14:41.400Z,991.7
2022-11-02T13:16:43.167Z,991.6
2022-11-02T13:18:44.077Z,991.8
2022-11-02T13:20:45.240Z,991.9
2022-11-02T13:22:46.576Z,991.8
2022-11-02T13:24:48.339Z,991.8
2022-11-02T13:26:53.163Z,991.8
2022-11-02T13:28:51.347Z,991.8
2022-11-02T13:30:52.914Z,991.7
2022-11-02T13:32:54.783Z,991.7
2022-11-02T13:34:56.485Z,991.8
2022-11-02T13:36:57.786Z,991.8
2022-11-02T13:38:58.724Z,991.9
2022-11-02T13:40:59.596Z,991.9
2022-11-02T13:43:00.984Z,991.9
2022-11-02T13:45:02.366Z,991.9
2022-11-02T13:47:04.170Z,991.9
2022-11-02T13:49:05.125Z,991.8
2022-11-02T13:51:06.095Z,991.9
2022-11-02T13:53:07.852Z,991.8
2022-11-02T13:55:08.883Z,991.8
2022-11-02T13:57:09.749Z,991.7
2022-11-02T13:59:11.130Z,991.7
2022-11-02T14:01:12.891Z,991.7
2022-11-02T14:03:13.755Z,991.6
2022-11-02T14:05:15.167Z,991.7
2022-11-02T14:07:16.181Z,991.6
2022-11-02T14:09:17.674Z,991.7
2022-11-02T14:13:21.040Z,991.8
2022-11-02T14:15:22.418Z,991.7
2022-11-02T14:17:23.518Z,991.7
2022-11-02T14:19:24.522Z,991.8
2022-11-02T14:21:25.986Z,991.8
2022-11-02T14:23:27.610Z,991.7
2022-11-02T14:25:28.486Z,991.9
2022-11-02T14:27:29.347Z,991.9
2022-11-02T14:29:30.702Z,991.7
2022-11-02T14:31:31.952Z,991.8
2022-11-02T14:33:33.458Z,991.7
2022-11-02T14:35:34.421Z,991.8
2022-11-02T14:39:36.978Z,991.7
2022-11-02T14:41:38.597Z,991.7
2022-11-02T14:43:39.666Z,991.7
2022-11-02T14:45:40.514Z,991.7
2022-11-02T14:49:42.411Z,991.7
2022-11-02T14:51:43.355Z,991.6
2022-11-02T14:55:46.188Z,991.7
2022-11-02T14:57:47.663Z,991.7
2022-11-02T14:59:49.180Z,991.6
2022-11-02T15:01:50.401Z,991.6
2022-11-02T15:03:51.467Z,991.6
2022-11-02T15:05:52.435Z,991.6
2022-11-02T15:07:53.690Z,991.6
2022-11-02T15:09:54.695Z,991.7
2022-11-02T15:11:56.145Z,991.6
2022-11-02T15:13:57.769Z,991.6
2022-11-02T15:15:58.703Z,991.6
2022-11-02T15:17:59.732Z,991.7
2022-11-02T15:20:01.149Z,991.6
2022-11-02T15:22:02.926Z,991.7
2022-11-02T15:24:04.367Z,991.7
2022-11-02T15:26:06.130Z,991.7
2022-11-02T15:28:07.723Z,991.7
2022-11-02T15:30:09.198Z,991.7
2022-11-02T15:32:10.168Z,991.6
2022-11-02T15:34:11.159Z,991.6
2022-11-02T15:36:12.584Z,991.6
2022-11-02T15:38:18.642Z,991.6
2022-11-02T15:40:15.808Z,991.6
2022-11-02T15:42:17.129Z,991.7
2022-11-02T15:44:18.274Z,991.6
2022-11-02T15:46:20.049Z,991.7
2022-11-02T15:48:21.540Z,991.5
2022-11-02T15:50:22.448Z,991.5
2022-11-02T15:52:23.580Z,991.6
2022-11-02T15:54:24.708Z,991.6
2022-11-02T15:56:26.187Z,991.7
2022-11-02T15:58:27.992Z,991.7
2022-11-02T16:00:29.053Z,991.6
2022-11-02T16:02:30.887Z,991.6
2022-11-02T16:04:32.013Z,991.6
2022-11-02T16:06:33.268Z,991.6
2022-11-02T16:08:35.047Z,991.6
2022-11-02T16:10:36.464Z,991.5
2022-11-02T16:12:37.416Z,991.6
2022-11-02T16:14:39.237Z,991.5
2022-11-02T16:16:40.302Z,991.5
2022-11-02T16:20:43.535Z,991.5
2022-11-02T16:22:44.717Z,991.5
2022-11-02T16:24:46.121Z,991.5
2022-11-02T16:26:47.099Z,991.4
2022-11-02T16:30:50.391Z,991.5
2022-11-02T16:32:51.535Z,991.5
2022-11-02T16:34:53.387Z,991.4
2022-11-02T16:36:54.576Z,991.5
2022-11-02T16:38:56.265Z,991.5
2022-11-02T16:40:57.417Z,991.5
2022-11-02T16:42:58.470Z,991.5
2022-11-02T16:44:59.742Z,991.7
2022-11-02T16:47:01.438Z,991.6
2022-11-02T16:49:02.736Z,991.6
2022-11-02T16:51:04.289Z,991.5
2022-11-02T16:53:05.360Z,991.5
2022-11-02T16:55:07.129Z,991.4
2022-11-02T16:57:11.615Z,991.5
2022-11-02T16:59:09.854Z,991.4
2022-11-02T17:01:10.938Z,991.3
2022-11-02T17:03:11.896Z,991.4
2022-11-02T17:05:13.250Z,991.5
2022-11-02T17:07:15.178Z,991.5
2022-11-02T17:09:16.906Z,991.4
2022-11-02T17:11:18.406Z,991.5
2022-11-02T17:13:22.002Z,991.4
2022-11-02T17:15:20.946Z,991.4
2022-11-02T17:17:22.127Z,991.5
2022-11-02T17:19:23.143Z,991.4
2022-11-02T17:21:25.091Z,991.4
2022-11-02T17:23:26.228Z,991.4
2022-11-02T17:25:27.392Z,991.5
2022-11-02T17:27:28.326Z,991.4
2022-11-02T17:29:29.586Z,991.5
2022-11-02T17:31:31.214Z,991.4
2022-11-02T17:35:34.081Z,991.5
2022-11-02T17:37:35.885Z,991.5
2022-11-02T17:39:37.320Z,991.5
2022-11-02T17:41:39.005Z,991.4
2022-11-02T17:43:40.564Z,991.4
2022-11-02T17:45:42.456Z,991.4
2022-11-02T17:47:44.325Z,991.4
2022-11-02T17:49:46.161Z,991.4
2022-11-02T17:51:47.796Z,991.4
2022-11-02T17:53:49.232Z,991.4
2022-11-02T17:55:50.395Z,991.4
2022-11-02T17:57:51.448Z,991.5
2022-11-02T17:59:54.061Z,991.3
2022-11-02T18:01:54.200Z,991.4
2022-11-02T18:03:55.138Z,991.3
2022-11-02T18:05:59.721Z,991.4
2022-11-02T18:07:58.913Z,991.4
2022-11-02T18:10:00.803Z,991.3
2022-11-02T18:12:02.745Z,991.2
2022-11-02T18:14:13.622Z,991.1
2022-11-02T18:16:06.376Z,991.2
2022-11-02T18:18:08.375Z,991.3
2022-11-02T18:20:18.461Z,991.2
2022-11-02T18:22:11.258Z,991.2
2022-11-02T18:24:12.312Z,991.1
2022-11-02T18:26:13.389Z,991.2
2022-11-02T18:28:15.270Z,991.2
2022-11-02T18:30:16.693Z,991.3
2022-11-02T18:32:17.848Z,991.2
2022-11-02T18:34:19.095Z,991.1
2022-11-02T18:36:20.158Z,991
2022-11-02T18:38:21.624Z,991
2022-11-02T18:40:23.532Z,991.1
2022-11-02T18:44:26.168Z,991
2022-11-02T18:46:29.596Z,991.1
2022-11-02T18:48:28.983Z,991.2
2022-11-02T18:50:30.918Z,991.1
2022-11-02T18:54:33.777Z,991
2022-11-02T18:56:34.967Z,990.9
2022-11-02T18:58:36.755Z,991
2022-11-02T19:00:38.019Z,991
2022-11-02T19:02:39.803Z,991
2022-11-02T19:04:41.269Z,991
2022-11-02T19:06:42.599Z,991
2022-11-02T19:08:44.499Z,990.9
2022-11-02T19:10:46.209Z,990.9
2022-11-02T19:12:47.235Z,990.8
2022-11-02T19:14:48.820Z,990.9
2022-11-02T19:16:50.435Z,990.9
2022-11-02T19:18:51.700Z,990.9
2022-11-02T19:20:53.012Z,990.8
2022-11-02T19:22:54.606Z,990.8
2022-11-02T19:24:55.578Z,990.8
2022-11-02T19:26:56.594Z,990.8
2022-11-02T19:29:01.309Z,990.8
2022-11-02T19:30:59.503Z,990.8
2022-11-02T19:33:00.813Z,990.8
2022-11-02T19:35:02.479Z,990.8
2022-11-02T19:37:04.443Z,990.8
2022-11-02T19:39:06.191Z,990.8
2022-11-02T19:43:08.800Z,990.9
2022-11-02T19:45:09.812Z,990.9
2022-11-02T19:47:11.603Z,990.8
2022-11-02T19:49:12.604Z,990.9
2022-11-02T19:51:14.667Z,990.9
2022-11-02T19:53:15.295Z,990.9
2022-11-02T19:53:59.182Z,990.9
2022-11-02T19:58:02.581Z,990.8
2022-11-02T20:00:03.973Z,990.8
2022-11-02T20:02:05.536Z,990.7
2022-11-02T20:04:07.495Z,990.7
2022-11-02T20:06:09.000Z,990.7
2022-11-02T20:08:10.039Z,990.8
2022-11-02T20:10:11.280Z,990.8
2022-11-02T20:12:12.661Z,990.8
2022-11-02T20:14:14.295Z,990.8
2022-11-02T20:16:15.868Z,990.6
2022-11-02T20:18:19.693Z,990.7
2022-11-02T20:20:18.633Z,990.8
2022-11-02T20:22:20.381Z,990.7
2022-11-02T20:24:21.662Z,990.7
2022-11-02T20:26:23.495Z,990.8
2022-11-02T20:28:25.413Z,990.9
2022-11-02T20:30:27.092Z,990.7
2022-11-02T20:32:28.915Z,990.7
2022-11-02T20:36:31.767Z,990.7
2022-11-02T20:38:33.076Z,990.8
2022-11-02T20:40:37.537Z,990.7
2022-11-02T20:42:36.451Z,990.7
2022-11-02T20:44:37.523Z,990.7
2022-11-02T20:46:41.384Z,990.7
2022-11-02T20:48:40.555Z,990.6
2022-11-02T20:50:42.382Z,990.5
2022-11-02T20:52:43.869Z,990.6
2022-11-02T20:54:45.272Z,990.6
2022-11-02T20:56:46.739Z,990.6
2022-11-02T20:58:52.778Z,990.6
2022-11-02T21:00:49.959Z,990.5
2022-11-02T21:02:51.592Z,990.6
2022-11-02T21:04:52.651Z,990.6
2022-11-02T21:06:54.168Z,990.5
2022-11-02T21:08:55.863Z,990.5
2022-11-02T21:10:57.275Z,990.5
2022-11-02T21:12:58.741Z,990.4
2022-11-02T21:15:00.736Z,990.5
2022-11-02T21:19:03.588Z,990.6
2022-11-02T21:21:05.257Z,990.6
2022-11-02T21:23:06.588Z,990.5
2022-11-02T21:25:07.469Z,990.5
2022-11-02T21:27:09.465Z,990.6
2022-11-02T21:29:10.662Z,990.5
2022-11-02T21:31:12.567Z,990.5
2022-11-02T21:33:14.571Z,990.4
2022-11-02T21:35:15.728Z,990.5
2022-11-02T21:37:17.146Z,990.4
2022-11-02T21:39:18.526Z,990.4
2022-11-02T21:41:19.941Z,990.4
2022-11-02T21:45:26.105Z,990.4
2022-11-02T21:47:24.222Z,990.4
2022-11-02T21:49:25.950Z,990.3
2022-11-02T21:51:27.341Z,990.2
2022-11-02T21:55:30.311Z,990.3
2022-11-02T21:57:31.972Z,990.2
2022-11-02T21:59:33.656Z,990.2
2022-11-02T22:01:35.242Z,990.2
2022-11-02T22:03:36.631Z,990.2
2022-11-02T22:05:38.004Z,990.1
2022-11-02T22:07:39.185Z,990.1
2022-11-02T22:09:41.110Z,990.1
2022-11-02T22:11:42.554Z,990
2022-11-02T22:13:44.152Z,990
2022-11-02T22:15:45.952Z,990
2022-11-02T22:17:49.900Z,990
2022-11-02T22:19:48.845Z,990.1
2022-11-02T22:21:50.150Z,990.1
2022-11-02T22:23:51.666Z,990.1
2022-11-02T22:25:53.204Z,990.1
2022-11-02T22:27:55.044Z,990
2022-11-02T22:29:56.904Z,990
2022-11-02T22:31:57.949Z,990
2022-11-02T22:33:59.320Z,990
2022-11-02T22:38:02.901Z,989.9
2022-11-02T22:40:04.810Z,989.9
2022-11-02T22:42:06.617Z,989.9
2022-11-02T22:44:07.787Z,989.9
2022-11-02T22:46:08.878Z,989.9
2022-11-02T22:48:09.973Z,989.9
2022-11-02T22:50:11.924Z,989.9
2022-11-02T22:52:13.291Z,989.8
2022-11-02T22:54:14.296Z,989.9
2022-11-02T22:56:15.734Z,989.7
2022-11-02T22:58:17.120Z,989.8
2022-11-02T23:00:18.642Z,989.9
2022-11-02T23:02:20.616Z,989.8
2022-11-02T23:04:22.542Z,989.8
2022-11-02T23:06:23.697Z,989.7
2022-11-02T23:10:27.125Z,989.7
2022-11-02T23:12:28.152Z,989.8
2022-11-02T23:14:29.740Z,989.7
2022-11-02T23:16:31.155Z,989.7
2022-11-02T23:18:33.140Z,989.7
2022-11-02T23:20:35.170Z,989.7
2022-11-02T23:22:36.189Z,989.7
2022-11-02T23:26:39.328Z,989.7
2022-11-02T23:28:40.719Z,989.6
2022-11-02T23:30:42.648Z,989.5
2022-11-02T23:32:44.422Z,989.6
2022-11-02T23:34:46.090Z,989.6
2022-11-02T23:36:47.476Z,989.6
2022-11-02T23:38:48.892Z,989.7
2022-11-02T23:40:50.399Z,989.7
2022-11-02T23:42:52.218Z,989.7
2022-11-02T23:44:53.329Z,989.7
2022-11-02T23:46:55.172Z,989.6
2022-11-02T23:48:56.708Z,989.6
2022-11-02T23:50:58.517Z,989.6
2022-11-02T23:52:59.555Z,989.5
2022-11-02T23:55:01.130Z,989.5
2022-11-02T23:57:02.771Z,989.6
2022-11-02T23:59:03.913Z,989.5
